Time;durP1;ratioP1;P1;durP2;ratioP2;P2;SDS_P1;SDS_P2;PMS_P1;PMS_P2;Temp;Humidity;BMP_temperature;BMP_pressure;BME280_temperature;BME280_humidity;BME280_pressure;Samples;Min_cycle;Max_cycle;Signal;HPM_P1;HPM_P2
2022/06/13 00:01:32;;;;;;;5.13;3.92;;;18.10;99.90;;;18.82;68.66;97847.78;5042819;28;20060;-44
2022/06/13 00:04:03;;;;;;;6.68;4.18;;;18.10;99.90;;;18.82;68.25;97848.63;5042549;28;20057;-43
2022/06/13 00:06:32;;;;;;;8.88;4.07;;;18.10;99.90;;;18.86;67.99;97844.50;5042631;28;20060;-45
2022/06/13 00:09:00;;;;;;;4.70;3.13;;;18.20;99.90;;;18.87;67.93;97854.22;5042351;28;20057;-45
2022/06/13 00:11:28;;;;;;;4.90;3.25;;;18.20;99.90;;;18.91;67.61;97846.53;5041669;28;20046;-44
2022/06/13 00:13:57;;;;;;;5.20;3.15;;;18.20;99.90;;;18.93;67.42;97849.84;5041973;28;20060;-43
2022/06/13 00:16:25;;;;;;;4.32;3.42;;;18.30;99.90;;;18.95;67.34;97849.66;5042613;28;20049;-44
2022/06/13 00:18:54;;;;;;;3.63;2.70;;;18.30;99.90;;;18.91;67.50;97851.13;5042742;28;20045;-47
2022/06/13 00:21:28;;;;;;;5.45;2.83;;;18.20;99.90;;;18.93;67.22;97844.47;5042474;28;20348;-43
2022/06/13 00:23:56;;;;;;;4.00;3.28;;;18.30;99.90;;;18.92;66.94;97853.63;5042494;28;20060;-44
2022/06/13 00:26:26;;;;;;;3.90;3.50;;;18.30;99.90;;;18.95;67.40;97858.56;5042651;28;20259;-45
2022/06/13 00:28:56;;;;;;;3.85;3.20;;;18.40;99.90;;;18.98;67.60;97863.56;5042198;28;20343;-45
2022/06/13 00:31:24;;;;;;;5.50;3.45;;;18.50;99.90;;;19.00;67.53;97853.38;5042186;28;20041;-43
2022/06/13 00:33:53;;;;;;;7.38;3.47;;;18.50;99.90;;;19.04;67.88;97838.44;5042304;28;20336;-43
2022/06/13 00:36:23;;;;;;;5.13;3.00;;;18.60;99.90;;;19.11;67.56;97833.00;5042142;28;20072;-43
2022/06/13 00:38:52;;;;;;;4.40;3.30;;;18.80;99.90;;;19.16;67.78;97838.63;5041883;28;20369;-45
2022/06/13 00:41:27;;;;;;;5.13;3.08;;;18.80;99.90;;;19.23;67.45;97833.19;5057459;28;20053;-46
2022/06/13 00:43:56;;;;;;;5.80;3.30;;;18.90;99.90;;;19.28;67.16;97833.38;5041850;28;20225;-44
2022/06/13 00:46:35;;;;;;;5.03;3.67;;;18.90;99.90;;;19.30;67.57;97823.19;5041989;28;20053;-48
2022/06/13 00:49:09;;;;;;;4.80;3.30;;;18.90;99.90;;;19.30;67.54;97836.69;5041778;28;20071;-46
2022/06/13 00:51:46;;;;;;;3.35;2.80;;;18.80;99.90;;;19.31;67.47;97848.31;5057096;28;20040;-46
2022/06/13 00:54:18;;;;;;;4.15;3.20;;;18.80;99.90;;;19.31;67.15;97846.47;5042058;28;20363;-47
2022/06/13 00:56:48;;;;;;;4.28;3.08;;;18.80;99.90;;;19.32;66.50;97840.00;5057157;28;20049;-45
2022/06/13 00:59:24;;;;;;;3.00;2.50;;;18.80;99.90;;;19.32;66.41;97821.13;5057050;28;20056;-44
2022/06/13 01:01:52;;;;;;;4.45;3.03;;;18.80;99.90;;;19.31;66.17;97832.97;5042026;28;20343;-42
2022/06/13 01:04:20;;;;;;;4.65;2.47;;;18.80;99.90;;;19.31;65.68;97843.78;5057385;28;20038;-42
2022/06/13 01:06:50;;;;;;;4.70;3.10;;;18.80;99.90;;;19.27;65.72;97834.44;5042326;28;20057;-44
2022/06/13 01:11:16;;;;;;;5.68;2.97;;;18.70;99.90;;;19.22;65.63;97836.94;5056807;28;20057;-45
2022/06/13 01:12:11;;;;;;;4.82;2.50;;;18.70;99.90;;;19.26;65.27;97841.69;5041686;28;20037;-45
2022/06/13 01:15:16;;;;;;;3.83;2.80;;;18.70;99.90;;;19.23;65.53;97839.44;5057019;28;20053;-43
2022/06/13 01:18:02;;;;;;;3.67;2.45;;;18.70;99.90;;;19.16;65.79;97846.72;5041516;28;20053;-42
2022/06/13 01:21:02;;;;;;;4.78;2.70;;;18.60;99.90;;;19.20;65.40;97841.72;5041795;28;20057;-42
2022/06/13 01:24:00;;;;;;;4.03;2.90;;;18.70;99.90;;;19.11;65.13;97843.81;5041872;28;20053;-43
2022/06/13 01:26:52;;;;;;;4.30;2.50;;;18.60;99.90;;;19.12;65.34;97844.66;5057603;28;20075;-44
2022/06/13 01:29:26;;;;;;;3.70;2.50;;;18.70;99.90;;;19.12;64.69;97834.69;5045305;28;20049;-43
2022/06/13 01:32:02;;;;;;;;;;;18.60;99.90;;;19.03;64.91;97833.25;5045976;28;20049;-42
2022/06/13 01:35:03;;;;;;;5.22;2.70;;;18.50;99.90;;;18.98;64.65;97830.34;5045389;28;19923;-42
2022/06/13 01:37:46;;;;;;;4.75;2.75;;;18.50;99.90;;;18.99;64.67;97818.53;5053841;28;20087;-43
2022/06/13 01:40:54;;;;;;;3.20;2.45;;;18.50;99.90;;;18.88;64.75;97815.44;5045884;28;20053;-43
2022/06/13 01:43:44;;;;;;;3.33;2.65;;;18.30;99.90;;;18.80;64.89;97809.41;5045243;28;20057;-41
2022/06/13 01:46:21;;;;;;;3.25;2.50;;;18.20;99.90;;;18.75;64.91;97812.72;5045144;28;20053;-43
2022/06/13 01:49:05;;;;;;;4.65;3.08;;;18.20;99.90;;;18.77;65.00;97813.34;5060324;28;20056;-41
2022/06/13 01:52:04;;;;;;;3.92;2.33;;;18.20;99.90;;;18.74;64.92;97821.84;5059307;28;20045;-41
2022/06/13 01:54:52;;;;;;;5.20;2.88;;;18.20;99.90;;;18.79;64.60;97823.94;5044710;28;20041;-41
2022/06/13 01:57:39;;;;;;;4.68;3.20;;;18.30;99.90;;;18.78;64.56;97830.34;5043826;28;20073;-42
2022/06/13 02:00:36;;;;;;;3.83;2.72;;;18.30;99.90;;;18.50;65.11;97843.00;5059871;28;20042;-41
2022/06/13 02:03:28;;;;;;;5.35;2.80;;;17.90;99.90;;;18.17;65.89;97848.38;5044980;28;20062;-41
2022/06/13 02:06:14;;;;;;;3.47;3.05;;;17.80;99.90;;;18.26;65.55;97844.44;5024165;28;20336;-41
2022/06/13 02:09:11;;;;;;;5.18;3.25;;;17.70;99.90;;;18.23;65.46;97846.72;5023652;28;20221;-41
2022/06/13 02:11:47;;;;;;;5.22;3.17;;;17.70;99.90;;;18.18;65.53;97850.00;5024316;28;20049;-42
2022/06/13 02:14:20;;;;;;;8.23;3.20;;;17.80;99.90;;;18.35;65.14;97849.63;5023796;28;20056;-41
2022/06/13 02:17:02;;;;;;;;;;;17.90;99.90;;;18.40;65.11;97849.84;5025841;28;20045;-41
2022/06/13 02:19:55;;;;;;;5.70;2.88;;;17.90;99.90;;;18.33;65.11;97849.84;5023634;28;19918;-41
2022/06/13 02:22:37;;;;;;;3.60;3.03;;;17.90;99.90;;;18.28;64.82;97852.31;5024796;28;20056;-41
2022/06/13 02:25:34;;;;;;;3.78;2.70;;;17.80;99.90;;;17.98;65.50;97857.25;5024694;28;20057;-41
2022/06/13 02:28:09;;;;;;;7.85;4.32;;;17.60;99.90;;;17.97;65.16;97856.41;5022835;28;20359;-40
2022/06/13 02:30:49;;;;;;;6.95;3.05;;;17.40;99.90;;;17.95;65.03;97852.25;5023698;28;20244;-41
2022/06/13 02:33:30;;;;;;;4.82;3.15;;;17.40;99.90;;;18.07;65.23;97856.03;5023377;28;20227;-41
2022/06/13 02:36:37;;;;;;;4.32;2.95;;;17.60;99.90;;;18.07;64.92;97851.47;5024507;28;20049;-41
2022/06/13 02:39:20;;;;;;;5.38;2.97;;;17.70;99.90;;;18.09;64.77;97837.78;5022853;28;20049;-41
2022/06/13 02:42:13;;;;;;;3.67;2.53;;;17.60;99.90;;;18.14;64.47;97843.38;5023677;28;20063;-40
2022/06/13 02:45:11;;;;;;;5.18;3.90;;;17.70;99.90;;;18.03;63.48;97839.44;5024173;28;20052;-41
2022/06/13 02:48:10;;;;;;;4.72;2.95;;;17.50;99.90;;;17.99;63.52;97853.50;5022482;28;20053;-41
2022/06/13 02:51:16;;;;;;;7.55;3.50;;;17.50;99.90;;;17.64;64.12;97848.19;5023141;28;20054;-41
2022/06/13 02:54:36;;;;;;;8.73;3.53;;;17.30;99.90;;;17.49;63.94;97857.25;5024251;28;20046;-40
2022/06/13 02:57:31;;;;;;;6.13;3.30;;;17.20;99.90;;;17.53;64.07;97857.69;5023845;28;20068;-41
2022/06/13 03:00:46;;;;;;;4.15;2.88;;;17.00;99.90;;;17.21;65.10;97848.41;5023221;28;20042;-41
2022/06/13 03:03:33;;;;;;;7.57;3.95;;;16.80;99.90;;;17.11;65.54;97859.53;5024015;28;20054;-41
2022/06/13 03:06:31;;;;;;;5.78;3.05;;;16.60;99.90;;;17.04;65.56;97859.50;5023769;28;20060;-41
2022/06/13 03:09:16;;;;;;;8.98;4.45;;;16.60;99.90;;;16.93;65.84;97854.66;5023385;28;20046;-40
2022/06/13 03:12:09;;;;;;;6.10;3.25;;;16.50;99.90;;;16.92;65.49;97864.59;5023687;28;20064;-41
2022/06/13 03:15:03;;;;;;;4.90;2.85;;;16.40;99.90;;;17.03;65.25;97867.75;5023752;28;20042;-40
2022/06/13 03:17:53;;;;;;;3.15;2.72;;;16.60;99.90;;;17.00;64.80;97860.06;5022787;28;20060;-41
2022/06/13 03:20:25;;;;;;;6.13;3.38;;;16.60;99.90;;;17.11;64.36;97857.66;5022761;28;20056;-40
2022/06/13 03:23:25;;;;;;;6.38;2.78;;;16.60;99.90;;;17.02;63.75;97856.16;5022750;28;20053;-41
2022/06/13 03:26:05;;;;;;;5.00;3.15;;;16.60;99.90;;;16.94;63.69;97850.91;5023639;28;20049;-40
2022/06/13 03:28:48;;;;;;;7.47;3.10;;;16.40;99.90;;;16.77;63.53;97858.44;5023313;28;20045;-41
2022/06/13 03:31:32;;;;;;;9.32;3.65;;;16.30;99.90;;;16.84;63.24;97861.19;5022694;28;20058;-40
2022/06/13 03:34:08;;;;;;;6.10;3.03;;;16.30;99.90;;;16.77;63.06;97862.97;5022551;28;20066;-41
2022/06/13 03:36:43;;;;;;;5.03;2.85;;;16.30;99.90;;;16.86;62.76;97864.53;5022533;28;20045;-40
2022/06/13 03:39:49;;;;;;;3.97;2.60;;;16.40;99.90;;;16.75;62.23;97868.56;5022326;28;20064;-40
2022/06/13 03:42:39;;;;;;;6.18;3.10;;;16.30;99.90;;;16.83;62.13;97870.31;5023519;28;20050;-40
2022/06/13 03:45:38;;;;;;;5.63;3.05;;;16.30;99.90;;;16.69;61.97;97863.94;5022039;28;20056;-41
2022/06/13 03:48:27;;;;;;;6.72;3.15;;;16.30;99.90;;;16.73;61.49;97870.63;5021335;28;20054;-40
2022/06/13 03:51:03;;;;;;;6.47;3.47;;;16.40;99.90;;;16.76;61.52;97866.69;5022660;28;20059;-40
2022/06/13 03:53:53;;;;;;;5.70;3.88;;;16.30;99.90;;;16.79;61.24;97868.97;5023079;28;20348;-41
2022/06/13 03:56:42;;;;;;;4.60;3.40;;;16.40;99.90;;;16.62;61.31;97874.66;5023165;28;20046;-40
2022/06/13 03:59:25;;;;;;;4.72;3.15;;;16.20;99.90;;;16.63;61.36;97867.41;5021636;28;20351;-40
2022/06/13 04:02:00;;;;;;;6.45;3.58;;;16.20;99.90;;;16.57;61.34;97869.03;5023129;28;20050;-40
2022/06/13 04:04:39;;;;;;;5.68;3.42;;;16.20;99.90;;;16.43;61.70;97872.63;5022881;28;20247;-41
2022/06/13 04:07:07;;;;;;;6.32;3.22;;;16.00;99.90;;;16.46;61.58;97869.53;5022014;28;20049;-40
2022/06/13 04:09:51;;;;;;;6.72;3.13;;;16.10;99.90;;;16.46;61.57;97872.22;5022636;28;20340;-40
2022/06/13 04:12:59;;;;;;;10.10;3.40;;;16.10;99.90;;;16.23;61.03;97878.66;5021827;28;20052;-40
2022/06/13 04:16:01;;;;;;;7.70;3.72;;;16.10;99.90;;;16.13;61.13;97875.47;5022589;28;20253;-40
2022/06/13 04:18:56;;;;;;;6.82;3.15;;;15.90;99.90;;;16.08;61.38;97876.00;5022571;28;20050;-40
2022/06/13 04:21:46;;;;;;;7.55;3.50;;;15.80;99.90;;;16.21;61.31;97880.69;5021830;28;20352;-41
2022/06/13 04:24:36;;;;;;;7.25;3.28;;;15.90;99.90;;;16.05;61.43;97887.16;5022588;28;20248;-40
2022/06/13 04:27:35;;;;;;;5.95;3.10;;;15.80;99.90;;;16.06;60.88;97899.53;5021465;28;20054;-40
2022/06/13 04:30:14;;;;;;;5.72;3.40;;;15.80;99.90;;;16.14;60.57;97910.16;5021674;28;20052;-40
2022/06/13 04:33:01;;;;;;;5.18;2.80;;;15.90;99.90;;;16.07;61.16;97911.09;5021596;28;20072;-40
2022/06/13 04:35:32;;;;;;;5.47;2.85;;;15.80;99.90;;;16.18;60.87;97907.09;5021251;28;20235;-40
2022/06/13 04:38:04;;;;;;;8.07;3.40;;;15.80;99.90;;;16.11;61.06;97904.31;5021359;28;20048;-40
2022/06/13 04:40:35;;;;;;;10.05;3.67;;;15.80;99.90;;;16.12;60.89;97897.94;5022484;28;20050;-40
2022/06/13 04:43:09;;;;;;;6.18;3.50;;;15.80;99.90;;;16.02;60.99;97903.63;5021523;28;20053;-40
2022/06/13 04:46:04;;;;;;;6.78;3.40;;;15.80;99.90;;;16.17;60.97;97905.44;5021237;28;20252;-40
2022/06/13 04:48:32;;;;;;;5.80;3.40;;;15.90;99.90;;;16.14;60.82;97923.59;5021205;28;20046;-40
2022/06/13 04:51:12;;;;;;;7.68;3.33;;;15.90;99.90;;;15.88;61.45;97912.56;5021330;28;20053;-40
2022/06/13 04:54:33;;;;;;;9.80;3.63;;;15.70;99.90;;;15.89;61.28;97920.41;5021393;28;20041;-41
2022/06/13 04:57:02;;;;;;;11.15;4.13;;;15.70;99.90;;;16.06;61.31;97930.94;5022388;28;20056;-40
2022/06/13 04:59:30;;;;;;;9.00;3.85;;;15.80;99.90;;;16.15;60.78;97935.19;5004370;28;20057;-40
2022/06/13 05:02:01;;;;;;;5.43;3.03;;;15.90;99.90;;;15.94;61.23;97933.28;5025441;28;20056;-40
2022/06/13 05:04:32;;;;;;;8.50;3.30;;;15.70;99.90;;;15.97;61.34;97938.25;5024663;28;20049;-40
2022/06/13 05:07:28;;;;;;;8.27;3.38;;;15.80;99.90;;;16.06;61.30;97947.06;5025199;28;20048;-40
2022/06/13 05:10:03;;;;;;;7.53;3.95;;;15.80;99.90;;;16.14;60.83;97950.44;5026255;28;20046;-41
2022/06/13 05:12:44;;;;;;;7.15;3.20;;;16.00;99.20;;;16.23;60.73;97956.53;5025203;28;20054;-40
2022/06/13 05:15:33;;;;;;;6.80;3.45;;;16.00;99.90;;;16.10;60.20;97961.75;5008686;28;20362;-40
2022/06/13 05:18:17;;;;;;;5.53;3.38;;;15.90;96.70;;;16.14;60.32;97968.41;5025983;28;20045;-40
2022/06/13 05:21:09;;;;;;;6.50;3.60;;;16.00;97.70;;;16.05;60.51;97959.66;5025560;28;20056;-40
2022/06/13 05:23:54;;;;;;;6.30;3.70;;;15.80;97.90;;;16.04;60.46;97965.22;5026066;28;20055;-40
2022/06/13 05:26:28;;;;;;;5.32;2.92;;;15.80;97.00;;;16.16;60.72;97965.56;5025946;28;20064;-40
2022/06/13 05:28:59;;;;;;;11.05;3.40;;;15.90;98.10;;;16.00;60.18;97975.50;5025707;28;20056;-40
2022/06/13 05:31:29;;;;;;;6.78;3.92;;;15.90;95.70;;;16.00;60.74;97972.81;5024455;28;20095;-40
2022/06/13 05:33:58;;;;;;;4.60;2.83;;;15.90;96.00;;;16.08;60.51;97982.59;5024727;28;20251;-40
2022/06/13 05:36:27;;;;;;;7.85;4.22;;;15.90;95.10;;;16.17;60.16;97983.31;5024450;28;20048;-40
2022/06/13 05:39:01;;;;;;;8.48;3.20;;;16.00;94.20;;;16.25;60.35;97978.69;5024808;28;20058;-40
2022/06/13 05:41:29;;;;;;;6.43;3.50;;;16.10;93.60;;;16.18;60.15;97983.13;5024652;28;20056;-40
2022/06/13 05:43:57;;;;;;;5.93;3.53;;;16.10;92.20;;;16.28;60.03;97982.84;5025203;28;20046;-40
2022/06/13 05:46:33;;;;;;;7.63;3.78;;;16.10;91.80;;;16.14;60.15;97981.84;5025219;28;20054;-40
2022/06/13 05:49:02;;;;;;;9.98;3.60;;;16.00;90.40;;;16.13;60.36;97986.41;5025302;28;20056;-41
2022/06/13 05:51:30;;;;;;;5.85;3.60;;;16.10;90.40;;;15.99;60.59;97989.91;5025466;28;20052;-41
2022/06/13 05:53:58;;;;;;;7.57;3.30;;;16.00;90.60;;;16.17;60.51;97994.91;5025188;28;20232;-40
2022/06/13 05:56:26;;;;;;;10.23;3.55;;;16.10;90.30;;;16.16;60.33;98001.28;5025172;28;20354;-40
2022/06/13 05:58:55;;;;;;;8.82;3.53;;;16.10;90.00;;;16.28;60.32;98007.84;5025123;28;20056;-40
2022/06/13 06:01:23;;;;;;;7.68;3.42;;;16.20;89.60;;;16.27;60.70;98006.19;5025274;28;20071;-40
2022/06/13 06:03:51;;;;;;;6.20;3.67;;;16.20;90.20;;;16.31;60.41;98014.69;5025253;28;20050;-40
2022/06/13 06:06:26;;;;;;;9.05;3.17;;;16.30;89.30;;;16.43;59.70;98018.56;5025103;28;20050;-40
2022/06/13 06:08:54;;;;;;;5.97;3.05;;;16.50;86.40;;;16.46;59.60;98011.97;5024800;28;20046;-40
2022/06/13 06:11:25;;;;;;;8.05;2.85;;;16.40;86.20;;;16.67;59.20;98022.75;5023407;28;20060;-40
2022/06/13 06:13:53;;;;;;;7.90;3.35;;;16.60;84.80;;;16.55;58.53;98016.19;5024864;28;20080;-40
2022/06/13 06:16:24;;;;;;;7.90;3.60;;;16.50;78.70;;;16.65;58.76;98010.50;5025063;28;20050;-40
2022/06/13 06:18:53;;;;;;;8.45;4.00;;;16.60;79.80;;;16.69;58.67;98018.03;5024762;28;20053;-40
2022/06/13 06:21:22;;;;;;;10.00;3.65;;;16.60;79.40;;;16.73;58.63;98022.00;5023651;28;20041;-40
2022/06/13 06:23:50;;;;;;;8.02;3.42;;;16.70;78.10;;;16.78;58.23;98021.41;5024848;28;20252;-40
2022/06/13 06:26:23;;;;;;;6.97;3.38;;;16.70;78.00;;;16.86;58.39;98021.31;5024729;28;20336;-40
2022/06/13 06:28:51;;;;;;;8.48;3.85;;;16.80;77.90;;;16.89;58.18;98022.78;5024086;28;20053;-41
2022/06/13 06:31:19;;;;;;;6.00;3.33;;;16.80;77.20;;;16.87;58.57;98028.34;5023593;28;20053;-40
2022/06/13 06:33:47;;;;;;;4.40;3.47;;;16.80;77.80;;;16.73;58.00;98027.38;5024634;28;20052;-40
2022/06/13 06:36:16;;;;;;;6.13;3.38;;;16.60;77.10;;;16.88;58.51;98030.00;5025151;28;20064;-40
2022/06/13 06:38:45;;;;;;;5.13;2.88;;;16.70;78.10;;;16.96;58.32;98022.84;5024376;28;20046;-40
2022/06/13 06:41:13;;;;;;;7.50;3.72;;;16.80;77.80;;;16.69;58.50;98030.59;5023416;28;20309;-40
2022/06/13 06:43:42;;;;;;;6.20;3.20;;;16.70;77.20;;;16.94;58.36;98028.41;5024465;28;20050;-40
2022/06/13 06:46:12;;;;;;;10.38;3.65;;;16.80;77.40;;;16.87;57.93;98039.13;5023270;28;20370;-40
2022/06/13 06:48:40;;;;;;;7.20;3.83;;;16.70;76.50;;;16.88;58.07;98037.25;5024134;28;20053;-41
2022/06/13 06:51:12;;;;;;;8.60;4.55;;;16.70;76.80;;;16.87;58.00;98052.56;5024113;28;20060;-40
2022/06/13 07:02:00;;;;;;;6.90;3.97;;;16.80;74.90;;;16.95;57.43;98034.63;5024178;28;20042;-40
2022/06/13 07:04:28;;;;;;;5.78;3.40;;;16.90;73.70;;;16.90;56.69;98043.25;5023841;28;20045;-40
2022/06/13 07:06:56;;;;;;;8.68;3.33;;;16.90;72.70;;;16.97;56.48;98035.28;5024074;28;20052;-40
2022/06/13 07:09:24;;;;;;;8.18;3.53;;;17.00;71.40;;;17.18;56.36;98045.19;5023658;28;20062;-40
2022/06/13 07:11:55;;;;;;;5.63;3.40;;;17.20;72.40;;;17.25;55.80;98044.22;5022948;28;20361;-40
2022/06/13 07:14:32;;;;;;;7.80;3.38;;;17.30;70.20;;;17.30;56.09;98043.63;5023910;28;20049;-40
2022/06/13 07:17:03;;;;;;;7.22;3.50;;;17.40;71.20;;;17.27;55.16;98038.63;5023902;28;20052;-40
2022/06/13 07:19:32;;;;;;;7.60;3.42;;;17.40;69.10;;;17.25;54.18;98046.06;5022667;28;20358;-40
2022/06/13 07:22:01;;;;;;;11.32;3.38;;;17.30;67.20;;;17.31;54.41;98045.28;5023768;28;20046;-40
2022/06/13 07:24:31;;;;;;;7.63;3.50;;;17.30;67.80;;;17.36;54.54;98050.09;5022387;28;20050;-40
2022/06/13 07:27:00;;;;;;;3.97;2.53;;;17.40;68.00;;;17.27;54.05;98046.69;5023673;28;20049;-40
2022/06/13 07:29:28;;;;;;;6.88;3.17;;;17.30;67.20;;;17.32;54.14;98049.66;5022901;28;20053;-40
2022/06/13 07:32:08;;;;;;;7.00;3.40;;;17.40;66.90;;;17.37;53.93;98049.91;5023551;28;20054;-40
2022/06/13 07:34:40;;;;;;;4.22;2.75;;;17.50;66.70;;;17.46;54.17;98059.47;5022398;28;20055;-40
2022/06/13 07:37:12;;;;;;;7.20;3.33;;;17.50;67.30;;;17.51;54.34;98061.63;5023618;28;20050;-40
2022/06/13 07:39:40;;;;;;;6.78;3.80;;;17.60;67.90;;;17.44;53.29;98052.66;5023263;28;20056;-40
2022/06/13 07:42:14;;;;;;;6.60;3.58;;;17.50;65.30;;;17.35;53.61;98062.72;5023466;28;20042;-40
2022/06/13 07:44:42;;;;;;;5.70;2.88;;;17.60;65.50;;;17.54;54.11;98069.28;5021918;28;20060;-40
2022/06/13 07:47:19;;;;;;;7.93;3.03;;;17.70;66.90;;;17.61;53.05;98063.97;5023714;28;20053;-40
2022/06/13 07:49:47;;;;;;;7.38;3.28;;;17.80;64.60;;;17.63;52.29;98070.81;5022113;28;20050;-40
2022/06/13 07:52:15;;;;;;;4.63;3.30;;;17.80;63.20;;;17.66;52.60;98064.19;5023079;28;20071;-40
2022/06/13 07:54:43;;;;;;;6.07;2.85;;;17.80;64.40;;;17.73;52.66;98070.47;5023329;28;20041;-40
2022/06/13 07:57:12;;;;;;;9.63;3.53;;;17.80;63.80;;;17.40;52.36;98067.53;5023079;28;20056;-41
2022/06/13 07:59:40;;;;;;;7.20;4.18;;;17.60;63.50;;;17.45;52.53;98068.59;5022671;28;20042;-40
2022/06/13 08:02:17;;;;;;;9.65;3.13;;;17.60;63.70;;;17.28;52.69;98070.72;5023199;28;20270;-40
2022/06/13 08:04:45;;;;;;;5.38;3.42;;;17.50;63.70;;;17.56;53.35;98077.16;5021902;28;20046;-40
2022/06/13 08:07:26;;;;;;;7.80;4.38;;;17.70;65.40;;;17.66;52.46;98066.88;5022806;28;20058;-40
2022/06/13 08:09:54;;;;;;;4.30;2.90;;;17.90;63.80;;;17.85;52.55;98070.78;5021956;28;20064;-40
2022/06/13 08:12:25;;;;;;;8.50;4.35;;;18.00;63.70;;;17.83;51.98;98075.50;5022782;28;20358;-41
2022/06/13 08:14:53;;;;;;;8.05;3.90;;;18.00;62.40;;;17.67;51.15;98076.63;5022606;28;20050;-40
2022/06/13 08:17:22;;;;;;;5.60;3.35;;;17.90;60.50;;;17.84;51.23;98078.03;5022850;28;20037;-40
2022/06/13 08:19:50;;;;;;;5.93;3.85;;;18.00;62.10;;;17.88;51.41;98071.22;5023273;28;20248;-40
2022/06/13 08:22:18;;;;;;;6.15;3.60;;;18.00;62.50;;;17.99;51.57;98075.22;5023578;28;20069;-40
2022/06/13 08:24:46;;;;;;;9.13;3.42;;;18.20;62.60;;;18.10;50.35;98080.03;5023277;28;20054;-40
2022/06/13 08:27:14;;;;;;;8.93;3.45;;;18.30;60.30;;;18.20;50.77;98085.06;5022688;28;20050;-40
2022/06/13 08:29:42;;;;;;;6.03;3.53;;;18.30;61.10;;;18.33;50.74;98088.88;5022470;28;20252;-40
2022/06/13 08:32:10;;;;;;;8.20;3.75;;;18.50;60.80;;;18.06;49.22;98084.16;5022528;28;20051;-40
2022/06/13 08:34:38;;;;;;;7.93;3.50;;;18.20;58.50;;;18.08;49.78;98079.41;5020763;28;20044;-40
2022/06/13 08:37:06;;;;;;;7.25;3.15;;;18.30;59.20;;;18.21;49.26;98083.22;5022574;28;20056;-40
2022/06/13 08:39:34;;;;;;;5.20;2.92;;;18.40;58.40;;;18.34;49.03;98079.75;5022228;28;20052;-40
2022/06/13 08:43:02;;;;;;;5.25;3.45;;;18.50;58.20;;;18.40;49.14;98084.34;5022096;28;20172;-40
2022/06/13 08:45:50;;;;;;;6.60;3.08;;;18.50;57.70;;;18.57;48.99;98082.13;5020889;28;20061;-40
2022/06/13 08:48:38;;;;;;;7.03;3.38;;;18.70;58.70;;;18.55;48.71;98092.28;5021248;28;20104;-40
2022/06/13 08:51:12;;;;;;;6.45;3.65;;;18.80;57.70;;;18.46;49.01;98081.69;5022446;28;20049;-40
2022/06/13 08:53:56;;;;;;;5.47;2.55;;;18.60;58.40;;;18.45;49.29;98082.69;5022332;28;20049;-40
2022/06/13 08:56:30;;;;;;;8.23;3.63;;;18.60;58.40;;;18.37;48.06;98092.84;5022319;28;20037;-40
2022/06/13 08:59:22;;;;;;;7.65;4.57;;;18.60;56.50;;;18.37;48.70;98101.75;5021580;28;20045;-40
2022/06/13 09:02:03;;;;;;;12.18;3.38;;;18.60;57.00;;;18.20;48.98;98101.22;5021479;28;20048;-40
2022/06/13 09:04:42;;;;;;;7.43;3.45;;;18.50;57.60;;;18.44;49.43;98099.91;5021271;28;20228;-41
2022/06/13 09:07:18;;;;;;;6.60;3.50;;;18.70;59.10;;;18.55;49.43;98093.09;5022129;28;20049;-40
2022/06/13 09:10:26;;;;;;;7.20;3.30;;;18.80;58.50;;;18.40;48.90;98097.84;5019880;28;20070;-40
2022/06/13 09:13:36;;;;;;;7.25;3.80;;;18.80;57.50;;;18.59;49.10;98096.22;5022469;28;20350;-40
2022/06/13 09:16:26;;;;;;;7.65;3.50;;;18.90;57.50;;;18.89;48.87;98102.19;5011754;28;20050;-40
2022/06/13 09:19:25;;;;;;;5.88;4.13;;;19.20;57.00;;;19.04;46.96;98102.03;5019631;28;20056;-40
2022/06/13 09:22:04;;;;;;;5.35;3.88;;;19.50;54.90;;;19.04;45.62;98116.34;5022367;28;20046;-40
2022/06/13 09:25:10;;;;;;;12.38;3.72;;;19.50;55.00;;;18.71;44.88;98100.03;5021711;28;20359;-40
2022/06/13 09:28:10;;;;;;;7.75;2.88;;;19.10;51.70;;;18.60;45.10;98097.91;5018142;28;20057;-40
2022/06/13 09:31:08;;;;;;;6.32;2.90;;;19.00;52.30;;;18.65;45.33;98101.66;5022213;28;20060;-41
2022/06/13 09:33:48;;;;;;;4.40;3.03;;;19.10;52.30;;;18.70;44.34;98103.75;5021684;28;20058;-40
2022/06/13 09:36:55;;;;;;;6.38;2.92;;;19.10;50.80;;;18.77;43.73;98095.69;5021677;28;20058;-40
2022/06/13 09:39:23;;;;;;;3.53;2.40;;;19.10;49.70;;;18.91;44.69;98097.41;5020255;28;20252;-40
2022/06/13 09:42:21;;;;;;;6.47;2.80;;;19.20;51.30;;;19.08;44.41;98100.56;5021420;28;20045;-40
2022/06/13 09:45:21;;;;;;;6.65;4.03;;;19.40;50.60;;;19.18;44.32;98103.69;5021515;28;20349;-40
2022/06/13 09:47:57;;;;;;;5.07;2.42;;;19.50;51.80;;;19.27;43.56;98102.47;5022953;28;20046;-40
2022/06/13 09:50:54;;;;;;;4.05;3.08;;;19.60;49.70;;;19.21;44.08;98103.31;5025402;28;20041;-40
2022/06/13 09:53:49;;;;;;;5.03;2.53;;;19.50;51.00;;;19.18;42.31;98114.50;5024443;28;20049;-40
2022/06/13 09:56:57;;;;;;;4.78;2.97;;;19.60;48.20;;;19.27;43.41;98094.38;5024280;28;20053;-40
2022/06/13 10:00:07;;;;;;;4.90;2.90;;;19.70;48.60;;;19.39;42.94;98094.59;5024398;28;20060;-40
2022/06/13 10:03:00;;;;;;;7.90;2.95;;;19.80;49.70;;;19.54;42.34;98104.34;5025398;28;20042;-40
2022/06/13 10:05:40;;;;;;;4.68;2.40;;;19.90;47.60;;;19.47;41.90;98096.25;5024961;28;20056;-40
2022/06/13 10:08:35;;;;;;;8.73;2.25;;;19.80;47.30;;;19.55;40.97;98096.03;5023868;28;20046;-40
2022/06/13 10:11:53;;;;;;;6.43;2.80;;;19.80;47.40;;;19.44;41.80;98099.34;5025560;28;20064;-41
2022/06/13 10:14:38;;;;;;;5.72;2.58;;;19.80;47.60;;;19.62;42.43;98093.34;5024701;28;20062;-40
2022/06/13 10:17:17;;;;;;;4.82;2.20;;;19.90;47.90;;;19.77;42.34;98103.97;5024968;28;20052;-40
2022/06/13 10:19:55;;;;;;;3.20;2.10;;;20.00;48.30;;;19.73;40.80;98094.63;5024907;28;20065;-41
2022/06/13 10:23:17;;;;;;;3.83;2.47;;;20.10;46.50;;;19.83;40.53;98101.28;5024799;28;20052;-40
2022/06/13 10:26:40;;;;;;;8.70;3.63;;;20.20;45.50;;;19.94;40.14;98090.84;5025052;28;20050;-40
2022/06/13 10:29:49;;;;;;;7.45;2.70;;;20.40;46.40;;;20.12;41.61;98090.19;5022713;28;20060;-40
2022/06/13 10:32:56;;;;;;;4.53;2.25;;;20.50;46.50;;;20.12;41.48;98099.13;5024032;28;20053;-40
2022/06/13 10:35:45;;;;;;;5.03;2.55;;;20.50;46.80;;;20.12;40.30;98098.28;5024467;28;20037;-40
2022/06/13 10:38:47;;;;;;;3.50;2.17;;;20.40;45.10;;;19.80;38.19;98100.84;5024225;28;20054;-40
2022/06/13 10:41:16;;;;;;;4.88;3.00;;;20.10;42.20;;;19.91;40.36;98091.25;5024460;28;20052;-40
2022/06/13 10:43:44;;;;;;;6.03;2.70;;;20.20;45.60;;;19.99;40.29;98100.00;5023245;28;20052;-40
2022/06/13 10:46:14;;;;;;;4.90;3.05;;;20.30;44.70;;;19.95;40.13;98104.16;5023559;28;20053;-41
2022/06/13 10:48:41;;;;;;;5.10;2.40;;;20.40;45.00;;;19.94;40.27;98088.16;5024192;28;20052;-40
2022/06/13 10:51:09;;;;;;;4.30;2.55;;;20.40;45.20;;;19.99;41.14;98093.75;5024563;28;20057;-40
2022/06/13 10:54:02;;;;;;;6.45;3.25;;;20.50;46.00;;;20.22;40.39;98090.56;5024338;28;20054;-40
2022/06/13 10:56:42;;;;;;;3.10;2.30;;;20.70;46.40;;;20.27;38.95;98090.78;5023102;28;20045;-40
2022/06/13 10:59:38;;;;;;;6.45;2.85;;;20.80;42.80;;;20.41;40.09;98094.25;5022539;28;20382;-40
2022/06/13 11:02:25;;;;;;;4.30;2.78;;;20.80;44.40;;;20.42;39.35;98094.06;5022391;28;20241;-40
2022/06/13 11:05:12;;;;;;;4.70;2.17;;;20.90;44.00;;;20.21;39.36;98111.38;5024009;28;20041;-40
2022/06/13 11:07:57;;;;;;;3.38;2.67;;;20.70;43.60;;;20.37;39.83;98101.13;5024271;28;20050;-40
2022/06/13 11:10:50;;;;;;;4.22;2.88;;;20.70;45.60;;;20.50;39.26;98101.09;5022863;28;20045;-40
2022/06/13 11:13:53;;;;;;;7.67;3.13;;;20.90;44.30;;;20.42;39.63;98098.63;5023145;28;20046;-40
2022/06/13 11:22:40;;;;;;;4.35;2.85;;;21.10;44.50;;;20.83;40.46;98094.75;5022804;28;20240;-40
2022/06/13 11:25:30;;;;;;;3.17;2.40;;;21.40;45.60;;;21.01;39.21;98091.31;5022643;28;20448;-40
2022/06/13 11:28:22;;;;;;;4.53;2.63;;;21.60;42.20;;;21.12;37.44;98089.78;5022512;28;20329;-40
2022/06/13 11:31:01;;;;;;;3.78;2.60;;;21.80;41.00;;;20.94;35.77;98083.25;5023307;28;20050;-40
2022/06/13 11:33:40;;;;;;;4.32;2.70;;;21.60;38.50;;;21.15;36.58;98086.63;5023734;28;20042;-40